createdAt,value
2022-11-07T00:00:25.982Z,100359.91
2022-11-07T00:02:52.454Z,100368.66
2022-11-07T00:05:18.862Z,100377.22
2022-11-07T00:07:45.304Z,100368.44
2022-11-07T00:10:11.644Z,100368.13
2022-11-07T00:12:38.157Z,100366.28
2022-11-07T00:15:06.237Z,100372.00
2022-11-07T00:17:32.626Z,100364.50
2022-11-07T00:19:59.085Z,100380.06
2022-11-07T00:22:25.630Z,100356.31
2022-11-07T00:24:52.259Z,100376.41
2022-11-07T00:27:19.778Z,100330.28
2022-11-07T00:29:46.352Z,100371.91
2022-11-07T00:32:12.692Z,100374.91
2022-11-07T00:34:39.059Z,100363.38
2022-11-07T00:37:05.495Z,100390.31
2022-11-07T00:39:32.104Z,100390.47
2022-11-07T00:41:58.551Z,100377.78
2022-11-07T00:44:24.946Z,100392.00
2022-11-07T00:46:51.323Z,100386.16
2022-11-07T00:49:17.692Z,100380.81
2022-11-07T00:51:44.105Z,100387.00
2022-11-07T00:54:10.726Z,100396.22
2022-11-07T00:56:37.298Z,100395.53
2022-11-07T00:59:03.811Z,100396.53
2022-11-07T01:01:33.323Z,100386.00
2022-11-07T01:04:18.352Z,100404.09
2022-11-07T01:06:46.623Z,100404.94
2022-11-07T01:09:21.256Z,100408.91
2022-11-07T01:11:48.703Z,100392.19
2022-11-07T01:14:18.647Z,100410.13
2022-11-07T01:16:45.057Z,100412.63
2022-11-07T01:19:11.615Z,100404.59
2022-11-07T01:21:39.830Z,100412.13
2022-11-07T01:24:08.340Z,100396.06
2022-11-07T01:26:36.810Z,100401.75
2022-11-07T01:29:03.733Z,100391.88
2022-11-07T01:31:31.782Z,100407.44
2022-11-07T01:33:59.630Z,100410.31
2022-11-07T01:36:26.972Z,100405.44
2022-11-07T01:38:53.829Z,100389.19
2022-11-07T01:41:25.400Z,100395.75
2022-11-07T01:43:54.270Z,100407.16
2022-11-07T01:46:22.378Z,100415.50
2022-11-07T01:49:06.598Z,100406.63
2022-11-07T01:51:39.193Z,100396.94
2022-11-07T01:54:08.079Z,100403.44
2022-11-07T01:56:39.194Z,100396.59
2022-11-07T01:59:06.814Z,100398.59
2022-11-07T02:01:33.504Z,100402.63
2022-11-07T02:04:00.756Z,100406.16
2022-11-07T02:06:37.493Z,100407.47
2022-11-07T02:09:04.380Z,100406.16
2022-11-07T02:11:31.506Z,100390.22
2022-11-07T02:13:57.932Z,100411.16
2022-11-07T02:16:24.421Z,100416.00
2022-11-07T02:18:50.926Z,100409.66
2022-11-07T02:21:47.618Z,100410.16
2022-11-07T02:24:27.005Z,100393.91
2022-11-07T02:26:55.979Z,100407.50
2022-11-07T02:29:24.524Z,100400.63
2022-11-07T02:32:05.774Z,100412.84
2022-11-07T02:34:32.174Z,100398.09
2022-11-07T02:37:00.771Z,100409.31
2022-11-07T02:39:27.331Z,100396.78
2022-11-07T02:41:55.651Z,100402.31
2022-11-07T02:44:22.479Z,100392.94
2022-11-07T02:46:49.509Z,100388.25
2022-11-07T02:49:15.926Z,100407.81
2022-11-07T02:51:42.317Z,100384.56
2022-11-07T02:54:08.807Z,100405.63
2022-11-07T02:56:35.436Z,100404.16
2022-11-07T02:59:02.172Z,100411.00
2022-11-07T03:01:28.979Z,100408.34
2022-11-07T03:03:55.444Z,100402.47
2022-11-07T03:06:24.643Z,100421.06
2022-11-07T03:08:51.668Z,100401.63
2022-11-07T03:11:21.243Z,100396.97
2022-11-07T03:13:49.836Z,100406.16
2022-11-07T03:16:18.406Z,100410.38
2022-11-07T03:18:44.805Z,100408.16
2022-11-07T03:21:11.171Z,100399.94
2022-11-07T03:23:37.689Z,100383.06
2022-11-07T03:26:04.733Z,100406.16
2022-11-07T03:28:31.603Z,100408.66
2022-11-07T03:31:02.169Z,100408.66
2022-11-07T03:33:29.893Z,100394.13
2022-11-07T03:35:56.517Z,100403.63
2022-11-07T03:38:22.997Z,100418.22
2022-11-07T03:40:49.455Z,100409.34
2022-11-07T03:43:16.344Z,100408.34
2022-11-07T03:45:43.115Z,100418.72
2022-11-07T03:48:09.462Z,100414.53
2022-11-07T03:50:35.906Z,100416.03
2022-11-07T03:53:02.302Z,100413.50
2022-11-07T03:55:28.643Z,100408.00
2022-11-07T03:57:54.999Z,100413.00
2022-11-07T04:00:21.844Z,100413.19
2022-11-07T04:02:48.282Z,100426.22
2022-11-07T04:05:14.803Z,100416.69
2022-11-07T04:07:41.165Z,100425.22
2022-11-07T04:10:07.739Z,100415.50
2022-11-07T04:12:52.797Z,100413.50
2022-11-07T04:15:37.658Z,100419.84
2022-11-07T04:18:04.064Z,100413.00
2022-11-07T04:20:30.476Z,100423.03
2022-11-07T04:22:56.917Z,100412.66
2022-11-07T04:25:43.424Z,100427.41
2022-11-07T04:28:09.777Z,100420.34
2022-11-07T04:30:36.173Z,100410.63
2022-11-07T04:33:03.207Z,100413.63
2022-11-07T04:35:32.376Z,100405.28
2022-11-07T04:38:00.109Z,100420.00
2022-11-07T04:40:27.922Z,100431.56
2022-11-07T04:42:54.774Z,100432.25
2022-11-07T04:45:21.152Z,100411.81
2022-11-07T04:47:47.763Z,100412.00
2022-11-07T04:50:17.238Z,100410.66
2022-11-07T04:52:44.444Z,100426.75
2022-11-07T04:55:18.836Z,100431.94
2022-11-07T04:57:45.594Z,100413.19
2022-11-07T05:00:12.572Z,100404.84
2022-11-07T05:02:39.016Z,100433.63
2022-11-07T05:05:06.098Z,100437.81
2022-11-07T05:07:32.431Z,100448.34
2022-11-07T05:09:58.817Z,100434.44
2022-11-07T05:12:25.205Z,100439.31
2022-11-07T05:14:51.593Z,100421.88
2022-11-07T05:17:18.093Z,100433.25
2022-11-07T05:19:44.715Z,100447.16
2022-11-07T05:22:30.157Z,100444.81
2022-11-07T05:24:56.537Z,100445.81
2022-11-07T05:27:24.046Z,100434.63
2022-11-07T05:29:50.734Z,100437.97
2022-11-07T05:32:17.298Z,100441.81
2022-11-07T05:34:43.756Z,100442.16
2022-11-07T05:37:20.707Z,100451.72
2022-11-07T05:39:49.925Z,100442.81
2022-11-07T05:42:20.322Z,100458.06
2022-11-07T05:44:46.834Z,100445.63
2022-11-07T05:47:13.199Z,100445.84
2022-11-07T05:49:39.702Z,100454.22
2022-11-07T05:52:06.117Z,100468.09
2022-11-07T05:54:33.168Z,100452.19
2022-11-07T05:56:59.529Z,100446.50
2022-11-07T05:59:25.916Z,100459.72
2022-11-07T06:01:53.491Z,100455.03
2022-11-07T06:04:20.067Z,100453.19
2022-11-07T06:06:46.503Z,100456.03
2022-11-07T06:09:12.905Z,100446.47
2022-11-07T06:11:39.387Z,100462.56
2022-11-07T06:14:05.961Z,100443.63
2022-11-07T06:16:32.536Z,100456.69
2022-11-07T06:18:58.884Z,100476.97
2022-11-07T06:21:25.325Z,100462.91
2022-11-07T06:23:51.909Z,100445.13
2022-11-07T06:26:18.283Z,100470.41
2022-11-07T06:28:44.741Z,100469.09
2022-11-07T06:31:11.401Z,100475.78
2022-11-07T06:33:37.827Z,100487.00
2022-11-07T06:36:06.624Z,100460.53
2022-11-07T06:38:33.265Z,100482.66
2022-11-07T06:41:11.505Z,100490.84
2022-11-07T06:43:38.686Z,100491.16
2022-11-07T06:46:08.409Z,100500.34
2022-11-07T06:48:34.876Z,100496.84
2022-11-07T06:51:03.494Z,100498.34
2022-11-07T06:53:29.981Z,100513.91
2022-11-07T06:55:59.813Z,100507.38
2022-11-07T06:58:26.333Z,100507.06
2022-11-07T07:00:53.554Z,100501.34
2022-11-07T07:03:20.040Z,100522.63
2022-11-07T07:05:46.440Z,100517.63
2022-11-07T07:08:14.072Z,100521.81
2022-11-07T07:10:43.619Z,100513.94
2022-11-07T07:13:10.423Z,100538.91
2022-11-07T07:15:49.918Z,100512.44
2022-11-07T07:18:16.966Z,100532.25
2022-11-07T07:20:43.351Z,100529.94
2022-11-07T07:23:09.755Z,100536.97
2022-11-07T07:25:36.150Z,100531.78
2022-11-07T07:28:02.518Z,100529.41
2022-11-07T07:30:28.879Z,100535.94
2022-11-07T07:32:55.235Z,100530.94
2022-11-07T07:35:22.218Z,100536.44
2022-11-07T07:37:52.397Z,100547.03
2022-11-07T07:40:20.081Z,100532.59
2022-11-07T07:42:47.034Z,100539.28
2022-11-07T07:45:15.491Z,100551.34
2022-11-07T07:47:42.338Z,100529.06
2022-11-07T07:50:10.855Z,100543.31
2022-11-07T07:52:37.648Z,100564.41
2022-11-07T07:55:04.924Z,100549.88
2022-11-07T07:57:31.279Z,100544.66
2022-11-07T07:59:57.671Z,100565.75
2022-11-07T08:02:24.075Z,100557.22
2022-11-07T08:04:50.525Z,100565.09
2022-11-07T08:07:17.116Z,100566.59
2022-11-07T08:09:43.485Z,100553.03
2022-11-07T08:12:09.838Z,100558.06
2022-11-07T08:14:36.685Z,100554.00
2022-11-07T08:17:03.593Z,100561.34
2022-11-07T08:19:29.964Z,100554.66
2022-11-07T08:21:56.363Z,100569.53
2022-11-07T08:24:22.914Z,100567.53
2022-11-07T08:26:49.379Z,100575.72
2022-11-07T08:29:15.897Z,100559.31
2022-11-07T08:31:42.556Z,100571.03
2022-11-07T08:34:08.974Z,100572.34
2022-11-07T08:36:35.655Z,100574.38
2022-11-07T08:39:02.187Z,100572.72
2022-11-07T08:41:28.659Z,100584.63
2022-11-07T08:43:55.017Z,100579.88
2022-11-07T08:46:21.368Z,100591.44
2022-11-07T08:48:47.853Z,100596.97
2022-11-07T08:51:14.223Z,100589.59
2022-11-07T08:53:40.597Z,100592.06
2022-11-07T08:56:09.155Z,100585.00
2022-11-07T08:58:36.820Z,100600.88
2022-11-07T09:01:10.272Z,100594.50
2022-11-07T09:03:45.962Z,100591.00
2022-11-07T09:06:12.984Z,100586.59
2022-11-07T09:08:40.844Z,100591.75
2022-11-07T09:11:07.507Z,100574.09
2022-11-07T09:13:34.499Z,100578.34
2022-11-07T09:16:03.228Z,100559.34
2022-11-07T09:18:30.029Z,100575.72
2022-11-07T09:20:57.712Z,100587.91
2022-11-07T09:23:24.321Z,100573.00
2022-11-07T09:25:50.814Z,100573.34
2022-11-07T09:28:17.227Z,100565.94
2022-11-07T09:30:43.681Z,100576.03
2022-11-07T09:33:10.083Z,100574.72
2022-11-07T09:35:36.456Z,100594.78
2022-11-07T09:38:02.909Z,100589.97
2022-11-07T09:40:43.535Z,100600.41
2022-11-07T09:43:42.682Z,100594.78
2022-11-07T09:46:27.473Z,100597.97
2022-11-07T09:49:14.466Z,100606.97
2022-11-07T09:51:45.636Z,100616.06
2022-11-07T09:54:20.488Z,100604.38
2022-11-07T09:56:47.004Z,100607.06
2022-11-07T09:59:25.741Z,100616.75
2022-11-07T10:01:52.475Z,100613.97
2022-11-07T10:04:26.102Z,100625.28
2022-11-07T10:07:09.163Z,100621.84
2022-11-07T10:09:58.698Z,100626.06
2022-11-07T10:12:45.806Z,100635.28
2022-11-07T10:15:26.921Z,100631.94
2022-11-07T10:17:58.394Z,100636.16
2022-11-07T10:20:33.218Z,100645.94
2022-11-07T10:23:22.669Z,100632.25
2022-11-07T10:26:10.426Z,100650.28
2022-11-07T10:28:52.749Z,100646.28
2022-11-07T10:31:19.566Z,100643.75
2022-11-07T10:33:56.741Z,100642.31
2022-11-07T10:36:31.338Z,100640.72
2022-11-07T10:38:58.091Z,100645.09
2022-11-07T10:41:31.616Z,100647.97
2022-11-07T10:44:02.345Z,100626.31
2022-11-07T10:46:41.813Z,100642.41
2022-11-07T10:49:18.870Z,100644.81
2022-11-07T10:51:45.360Z,100645.13
2022-11-07T10:54:31.344Z,100647.00
2022-11-07T10:57:05.564Z,100652.75
2022-11-07T10:59:36.579Z,100650.34
2022-11-07T11:02:19.698Z,100640.88
2022-11-07T11:04:54.973Z,100627.50
2022-11-07T11:07:28.507Z,100626.13
2022-11-07T11:09:57.849Z,100632.66
2022-11-07T11:12:32.233Z,100625.84
2022-11-07T11:15:05.009Z,100631.44
2022-11-07T11:17:31.582Z,100633.75
2022-11-07T11:19:58.060Z,100630.13
2022-11-07T11:22:25.844Z,100619.63
2022-11-07T11:25:14.868Z,100637.38
2022-11-07T11:27:41.654Z,100633.00
2022-11-07T11:30:15.283Z,100637.25
2022-11-07T11:33:06.014Z,100641.34
2022-11-07T11:35:41.877Z,100641.81
2022-11-07T11:38:27.639Z,100633.34
2022-11-07T11:41:10.574Z,100629.09
2022-11-07T11:43:46.551Z,100636.13
2022-11-07T11:46:29.975Z,100647.53
2022-11-07T11:49:09.562Z,100636.69
2022-11-07T11:51:43.220Z,100654.16
2022-11-07T11:54:12.237Z,100650.63
2022-11-07T11:56:51.306Z,100633.72
2022-11-07T11:59:52.327Z,100637.59
2022-11-07T12:02:24.625Z,100657.88
2022-11-07T12:05:09.930Z,100660.09
2022-11-07T12:08:04.256Z,100661.13
2022-11-07T12:10:55.038Z,100654.59
2022-11-07T12:13:30.929Z,100663.13
2022-11-07T12:16:08.548Z,100662.28
2022-11-07T12:19:10.380Z,100657.28
2022-11-07T12:21:48.657Z,100669.44
2022-11-07T12:24:39.527Z,100658.84
2022-11-07T12:27:24.116Z,100654.28
2022-11-07T12:30:10.191Z,100659.75
2022-11-07T12:33:02.699Z,100662.91
2022-11-07T12:35:54.829Z,100669.16
2022-11-07T12:38:55.007Z,100657.00
2022-11-07T12:41:44.942Z,100657.59
2022-11-07T12:44:17.041Z,100651.28
2022-11-07T12:46:58.347Z,100659.34
2022-11-07T12:49:43.068Z,100656.91
2022-11-07T12:52:24.953Z,100650.44
2022-11-07T12:55:00.323Z,100650.50
2022-11-07T12:57:36.566Z,100655.16
2022-11-07T13:00:29.685Z,100646.38
2022-11-07T13:03:05.609Z,100659.66
2022-11-07T13:05:46.936Z,100660.94
2022-11-07T13:08:40.681Z,100654.66
2022-11-07T13:11:25.729Z,100655.69
2022-11-07T13:14:01.289Z,100659.03
2022-11-07T13:16:30.337Z,100644.16
2022-11-07T13:19:12.064Z,100652.84
2022-11-07T13:21:42.832Z,100655.19
2022-11-07T13:24:21.671Z,100656.09
2022-11-07T13:26:48.546Z,100660.94
2022-11-07T13:29:33.398Z,100656.75
2022-11-07T13:32:15.982Z,100665.31
2022-11-07T13:34:50.823Z,100666.88
2022-11-07T13:37:21.539Z,100677.91
2022-11-07T13:39:51.692Z,100683.91
2022-11-07T13:42:18.716Z,100684.28
2022-11-07T13:44:53.632Z,100683.44
2022-11-07T13:47:32.360Z,100679.50
2022-11-07T13:50:07.757Z,100679.25
2022-11-07T13:52:54.331Z,100691.00
2022-11-07T13:55:25.496Z,100692.66
2022-11-07T13:58:06.899Z,100706.06
2022-11-07T14:00:34.806Z,100692.53
2022-11-07T14:03:01.548Z,100688.94
2022-11-07T14:05:33.082Z,100701.56
2022-11-07T14:08:12.464Z,100692.00
2022-11-07T14:10:49.116Z,100704.06
2022-11-07T14:13:39.665Z,100702.03
2022-11-07T14:16:23.656Z,100687.47
2022-11-07T14:19:27.823Z,100707.38
2022-11-07T14:21:55.658Z,100705.56
2022-11-07T14:24:28.032Z,100703.63
2022-11-07T14:27:07.401Z,100702.03
2022-11-07T14:29:34.078Z,100707.94
2022-11-07T14:32:02.710Z,100692.72
2022-11-07T14:34:29.348Z,100704.97
2022-11-07T14:37:01.110Z,100698.09
2022-11-07T14:39:30.148Z,100699.28
2022-11-07T14:41:58.890Z,100699.28
2022-11-07T14:44:53.876Z,100701.13
2022-11-07T14:47:25.352Z,100709.88
2022-11-07T14:49:53.006Z,100710.38
2022-11-07T14:52:25.274Z,100716.47
2022-11-07T14:55:20.673Z,100705.56
2022-11-07T14:57:47.717Z,100707.72
2022-11-07T15:00:17.208Z,100692.53
2022-11-07T15:02:47.404Z,100702.56
2022-11-07T15:05:27.916Z,100706.47
2022-11-07T15:07:56.226Z,100709.00
2022-11-07T15:10:30.095Z,100700.44
2022-11-07T15:13:03.034Z,100705.19
2022-11-07T15:15:32.467Z,100699.69
2022-11-07T15:18:07.064Z,100696.97
2022-11-07T15:20:36.607Z,100692.16
2022-11-07T15:23:28.102Z,100705.88
2022-11-07T15:26:11.481Z,100702.56
2022-11-07T15:28:51.348Z,100709.97
2022-11-07T15:31:29.698Z,100701.91
2022-11-07T15:33:58.650Z,100700.91
2022-11-07T15:36:25.833Z,100714.16
2022-11-07T15:38:54.025Z,100720.72
2022-11-07T15:41:20.961Z,100715.34
2022-11-07T15:43:47.434Z,100717.19
2022-11-07T15:46:51.367Z,100688.69
2022-11-07T15:49:38.526Z,100690.06
2022-11-07T15:52:10.538Z,100664.94
2022-11-07T15:54:50.018Z,100720.88
2022-11-07T15:57:20.685Z,100694.22
2022-11-07T15:59:54.561Z,100670.81
2022-11-07T16:02:33.288Z,100692.72
2022-11-07T16:05:00.522Z,100715.41
2022-11-07T16:07:29.320Z,100714.38
2022-11-07T16:10:07.542Z,100699.44
2022-11-07T16:12:42.755Z,100664.75
2022-11-07T16:15:16.918Z,100666.09
2022-11-07T16:17:47.721Z,100745.84
2022-11-07T16:20:26.048Z,100747.31
2022-11-07T16:22:56.574Z,100673.97
2022-11-07T16:25:26.180Z,100739.31
2022-11-07T16:27:56.569Z,100657.84
2022-11-07T16:30:25.897Z,100707.13
2022-11-07T16:33:01.945Z,100701.75
2022-11-07T16:35:37.603Z,100695.06
2022-11-07T16:38:19.320Z,100704.59
2022-11-07T16:41:06.496Z,100757.72
2022-11-07T16:43:38.368Z,100723.69
2022-11-07T16:46:05.649Z,100728.38
2022-11-07T16:48:32.288Z,100740.94
2022-11-07T16:50:58.711Z,100739.41
2022-11-07T16:53:25.916Z,100757.53
2022-11-07T16:56:00.807Z,100754.19
2022-11-07T16:58:29.692Z,100764.22
2022-11-07T17:00:58.920Z,100766.91
2022-11-07T17:03:31.486Z,100766.75
2022-11-07T17:06:00.414Z,100766.22
2022-11-07T17:08:34.878Z,100757.31
2022-11-07T17:11:01.272Z,100762.34
2022-11-07T17:13:27.641Z,100768.25
2022-11-07T17:15:54.789Z,100757.16
2022-11-07T17:18:23.538Z,100773.63
2022-11-07T17:20:51.955Z,100769.94
2022-11-07T17:23:19.722Z,100772.41
2022-11-07T17:25:50.772Z,100771.22
2022-11-07T17:28:17.630Z,100770.09
2022-11-07T17:30:44.285Z,100770.41
2022-11-07T17:33:10.813Z,100767.25
2022-11-07T17:35:37.767Z,100767.56
2022-11-07T17:38:04.244Z,100789.53
2022-11-07T17:40:32.534Z,100777.47
2022-11-07T17:42:59.618Z,100779.13
2022-11-07T17:45:27.113Z,100783.84
2022-11-07T17:47:53.995Z,100780.69
2022-11-07T17:50:21.714Z,100783.56
2022-11-07T17:52:48.402Z,100789.94
2022-11-07T17:55:15.118Z,100782.22
2022-11-07T17:57:43.339Z,100785.56
2022-11-07T18:00:19.050Z,100784.72
2022-11-07T18:02:47.967Z,100780.91
2022-11-07T18:05:17.284Z,100770.50
2022-11-07T18:07:44.651Z,100787.78
2022-11-07T18:10:15.653Z,100759.06
2022-11-07T18:12:43.513Z,100778.56
2022-11-07T18:15:13.301Z,100765.44
2022-11-07T18:17:40.890Z,100770.72
2022-11-07T18:20:09.192Z,100787.31
2022-11-07T18:22:37.666Z,100783.81
2022-11-07T18:25:08.421Z,100781.63
2022-11-07T18:27:34.953Z,100772.91
2022-11-07T18:30:02.921Z,100783.81
2022-11-07T18:32:34.623Z,100784.81
2022-11-07T18:35:04.787Z,100775.94
2022-11-07T18:37:31.746Z,100788.19
2022-11-07T18:39:58.132Z,100784.50
2022-11-07T18:42:24.535Z,100791.38
2022-11-07T18:44:51.014Z,100790.19
2022-11-07T18:47:17.402Z,100786.50
2022-11-07T18:49:44.440Z,100787.50
2022-11-07T18:52:10.852Z,100798.41
2022-11-07T18:54:37.493Z,100805.28
2022-11-07T18:57:03.939Z,100786.47
2022-11-07T18:59:30.282Z,100792.50
2022-11-07T19:01:56.757Z,100790.00
2022-11-07T19:04:23.429Z,100785.13
2022-11-07T19:06:57.020Z,100787.13
2022-11-07T19:09:25.887Z,100792.78
2022-11-07T19:11:52.477Z,100791.28
2022-11-07T19:14:19.545Z,100783.72
2022-11-07T19:16:46.062Z,100780.19
2022-11-07T19:19:12.523Z,100791.94
2022-11-07T19:21:43.583Z,100791.44
2022-11-07T19:24:10.162Z,100788.41
2022-11-07T19:26:38.413Z,100785.38
2022-11-07T19:29:05.711Z,100783.88
2022-11-07T19:31:34.748Z,100798.63
2022-11-07T19:34:01.617Z,100788.22
2022-11-07T19:36:28.141Z,100812.06
2022-11-07T19:38:54.627Z,100804.84
2022-11-07T19:41:21.092Z,100808.72
2022-11-07T19:43:50.633Z,100798.97
2022-11-07T19:46:22.447Z,100808.06
2022-11-07T19:48:49.806Z,100809.59
2022-11-07T19:51:22.207Z,100816.97
2022-11-07T19:53:57.616Z,100799.34
2022-11-07T19:56:26.589Z,100812.31
2022-11-07T19:58:54.318Z,100812.16
2022-11-07T20:01:25.601Z,100804.44
2022-11-07T20:03:53.524Z,100806.16
2022-11-07T20:06:22.894Z,100811.53
2022-11-07T20:08:49.961Z,100811.88
2022-11-07T20:11:21.781Z,100809.22
2022-11-07T20:13:48.549Z,100805.19
2022-11-07T20:16:15.269Z,100801.03
2022-11-07T20:18:42.220Z,100811.78
2022-11-07T20:21:13.067Z,100818.50
2022-11-07T20:23:41.036Z,100808.75
2022-11-07T20:26:13.809Z,100806.91
2022-11-07T20:28:40.732Z,100814.28
2022-11-07T20:31:37.443Z,100823.00
2022-11-07T20:34:07.658Z,100815.31
2022-11-07T20:36:34.319Z,100818.00
2022-11-07T20:39:01.779Z,100810.28
2022-11-07T20:41:28.247Z,100815.16
2022-11-07T20:43:55.529Z,100823.22
2022-11-07T20:46:22.085Z,100834.78
2022-11-07T20:48:48.765Z,100821.38
2022-11-07T20:51:19.937Z,100819.69
2022-11-07T20:53:50.324Z,100805.94
2022-11-07T20:56:18.850Z,100808.78
2022-11-07T20:58:46.415Z,100814.16
2022-11-07T21:01:21.827Z,100830.91
2022-11-07T21:03:48.398Z,100809.78
2022-11-07T21:06:15.206Z,100820.34
2022-11-07T21:08:44.561Z,100808.78
2022-11-07T21:11:12.873Z,100837.97
2022-11-07T21:13:40.052Z,100819.84
2022-11-07T21:16:06.863Z,100812.47
2022-11-07T21:18:33.502Z,100814.50
2022-11-07T21:21:12.379Z,100817.19
2022-11-07T21:23:39.069Z,100826.38
2022-11-07T21:26:08.520Z,100829.44
2022-11-07T21:28:36.029Z,100827.22
2022-11-07T21:31:05.396Z,100816.66
2022-11-07T21:33:32.519Z,100818.84
2022-11-07T21:35:58.982Z,100812.63
2022-11-07T21:38:25.422Z,100806.41
2022-11-07T21:40:52.845Z,100808.59
2022-11-07T21:43:19.879Z,100809.78
2022-11-07T21:45:46.458Z,100806.94
2022-11-07T21:48:12.787Z,100805.94
2022-11-07T21:50:45.083Z,100808.13
2022-11-07T21:53:12.070Z,100805.25
2022-11-07T21:55:38.520Z,100799.03
2022-11-07T21:58:04.898Z,100801.72
2022-11-07T22:00:35.766Z,100807.28
2022-11-07T22:03:03.624Z,100812.28
2022-11-07T22:05:30.006Z,100818.34
2022-11-07T22:07:56.741Z,100808.09
2022-11-07T22:10:23.222Z,100807.75
2022-11-07T22:12:51.204Z,100794.84
2022-11-07T22:15:17.711Z,100795.50
2022-11-07T22:17:44.109Z,100788.97
2022-11-07T22:20:11.400Z,100802.22
2022-11-07T22:22:37.778Z,100805.06
2022-11-07T22:25:04.802Z,100805.91
2022-11-07T22:27:31.223Z,100811.44
2022-11-07T22:29:57.816Z,100802.75
2022-11-07T22:32:24.205Z,100800.38
2022-11-07T22:34:50.666Z,100802.56
2022-11-07T22:37:17.085Z,100796.50
2022-11-07T22:39:43.467Z,100809.41
2022-11-07T22:42:09.821Z,100802.88
2022-11-07T22:44:36.348Z,100799.34
2022-11-07T22:47:02.821Z,100788.44
2022-11-07T22:49:29.394Z,100796.31
2022-11-07T22:51:55.821Z,100795.66
2022-11-07T22:54:22.277Z,100797.16
2022-11-07T22:56:48.630Z,100809.25
2022-11-07T22:59:15.025Z,100774.16
2022-11-07T23:01:42.577Z,100810.91
2022-11-07T23:04:13.898Z,100802.16
2022-11-07T23:06:40.502Z,100803.34
2022-11-07T23:09:07.038Z,100801.16
2022-11-07T23:11:51.073Z,100802.34
2022-11-07T23:14:20.719Z,100802.81
2022-11-07T23:16:50.788Z,100799.78
2022-11-07T23:19:19.808Z,100799.09
2022-11-07T23:21:46.823Z,100779.66
2022-11-07T23:24:13.657Z,100794.41
2022-11-07T23:26:40.798Z,100800.56
2022-11-07T23:29:19.137Z,100790.81
2022-11-07T23:31:47.461Z,100793.16
2022-11-07T23:34:14.534Z,100797.38
2022-11-07T23:36:43.967Z,100778.69
2022-11-07T23:39:16.619Z,100782.03
2022-11-07T23:41:43.615Z,100786.56
2022-11-07T23:44:11.283Z,100779.66
2022-11-07T23:46:56.433Z,100777.16
2022-11-07T23:49:41.675Z,100770.28
2022-11-07T23:52:08.292Z,100778.19
2022-11-07T23:54:52.924Z,100798.31
2022-11-07T23:57:20.317Z,100791.91
